Terminal Aerodrome Forecast
Issued by NWS

Home | Current Version | Previous Version | Text Only | Print | Product List | Glossary On
Versions: 1 2 3 4 5 6 7 8 9 10 11 12 13 14 15 16 17 18 19 20 21 22 23 24 25
000
FTUS46 KPDT 180603 AAA
TAFALW
TAF AMD
KALW 180603Z 1806/1906 30004KT 5SM -FZRAPL HZ SCT050 OVC080
     FM180800 16008KT 4SM -FZRAPL BR SCT035 OVC060
     FM181300 16014G22KT 5SM -RA BR SCT035 OVC070
     FM181800 16016G24KT P6SM VCSH SCT045 OVC090=

USA.gov is the U.S. government's official web portal to all federal, state and local government web resources and services.